Time;durP1;ratioP1;P1;durP2;ratioP2;P2;SDS_P1;SDS_P2;PMS_P1;PMS_P2;Temp;Humidity;BMP_temperature;BMP_pressure;BME280_temperature;BME280_humidity;BME280_pressure;Samples;Min_cycle;Max_cycle;Signal;HPM_P1;HPM_P2
2023/04/29 00:01:26;;;;;;;54.47;23.20;;;8.90;99.90;;;;;;5059378;28;20382;-62
2023/04/29 00:03:52;;;;;;;59.40;24.60;;;8.90;99.90;;;;;;5074620;28;20276;-61
2023/04/29 00:06:18;;;;;;;54.25;24.58;;;8.90;99.90;;;;;;5072631;28;20048;-62
2023/04/29 00:08:43;;;;;;;50.27;21.80;;;8.90;99.90;;;;;;5073945;28;20296;-64
2023/04/29 00:11:10;;;;;;;52.83;23.23;;;8.90;99.90;;;;;;5071854;28;20168;-66
2023/04/29 00:13:37;;;;;;;52.65;23.42;;;8.90;99.90;;;;;;5072420;28;20454;-63
2023/04/29 00:16:02;;;;;;;59.63;23.50;;;8.90;99.90;;;;;;5073503;28;20028;-62
2023/04/29 00:18:28;;;;;;;54.53;23.03;;;8.90;99.90;;;;;;5072713;28;20398;-71
2023/04/29 00:20:54;;;;;;;59.20;24.00;;;8.90;99.90;;;;;;5067219;28;20045;-78
2023/04/29 00:23:19;;;;;;;53.53;23.43;;;8.90;99.90;;;;;;5070187;28;20024;-69
2023/04/29 00:25:45;;;;;;;45.27;20.23;;;8.90;99.90;;;;;;5073598;28;20036;-64
2023/04/29 00:28:11;;;;;;;47.07;20.50;;;8.90;99.90;;;;;;5074006;28;20029;-69
2023/04/29 00:30:36;;;;;;;57.27;21.30;;;8.90;99.90;;;;;;5071605;28;20340;-68
2023/04/29 00:33:02;;;;;;;44.73;19.77;;;8.90;99.90;;;;;;5072417;28;20079;-71
2023/04/29 00:35:28;;;;;;;47.27;21.13;;;8.90;99.90;;;;;;5073232;28;20025;-70
2023/04/29 00:37:54;;;;;;;49.20;20.23;;;8.90;99.90;;;;;;5061012;28;20087;-72
2023/04/29 00:40:19;;;;;;;47.57;21.17;;;8.90;99.90;;;;;;5071779;28;20032;-62
2023/04/29 00:42:45;;;;;;;46.40;21.10;;;8.90;99.90;;;;;;5073247;28;20028;-63
2023/04/29 00:45:11;;;;;;;48.63;20.63;;;8.90;99.90;;;;;;5068749;28;20025;-62
2023/04/29 00:47:37;;;;;;;47.77;19.67;;;8.90;99.90;;;;;;5065135;28;20021;-64
2023/04/29 00:50:05;;;;;;;47.25;19.42;;;8.90;99.90;;;;;;5062973;28;20033;-64
2023/04/29 00:52:31;;;;;;;44.63;18.60;;;8.90;99.90;;;;;;5067523;28;20032;-76
2023/04/29 00:54:58;;;;;;;46.65;19.10;;;8.90;99.90;;;;;;5069132;28;20032;-70
2023/04/29 00:57:27;;;;;;;41.78;19.77;;;8.90;99.90;;;;;;5072211;28;20032;-63
2023/04/29 00:59:54;;;;;;;43.92;19.83;;;8.90;99.90;;;;;;5071101;28;20024;-70
2023/04/29 01:02:20;;;;;;;40.35;18.45;;;8.90;99.90;;;;;;5073763;28;20460;-63
2023/04/29 01:04:46;;;;;;;39.97;18.58;;;9.00;99.90;;;;;;5072258;28;20048;-71
2023/04/29 01:07:17;;;;;;;43.20;19.65;;;9.00;99.90;;;;;;5074712;28;20025;-76
2023/04/29 01:10:12;;;;;;;42.80;18.30;;;8.90;99.90;;;;;;5074104;28;20074;-63
2023/04/29 01:12:49;;;;;;;41.40;18.90;;;9.00;99.90;;;;;;5058890;28;20113;-64
2023/04/29 01:15:46;;;;;;;37.45;17.75;;;9.00;99.90;;;;;;5068453;28;20024;-68
2023/04/29 01:19:07;;;;;;;34.97;17.90;;;9.00;99.90;;;;;;5073543;28;20023;-68
2023/04/29 01:21:47;;;;;;;40.55;18.00;;;9.00;99.90;;;;;;5004059;28;20429;-66
2023/04/29 01:24:13;;;;;;;40.22;18.27;;;9.00;99.90;;;;;;5010182;28;20022;-62
2023/04/29 01:26:43;;;;;;;37.10;16.90;;;9.00;99.90;;;;;;5005112;28;20084;-62
2023/04/29 01:29:44;;;;;;;32.42;17.33;;;9.00;99.90;;;;;;5002967;28;20296;-62
2023/04/29 01:32:22;;;;;;;34.92;15.00;;;9.00;99.90;;;;;;5014097;28;20029;-62
2023/04/29 01:34:53;;;;;;;36.42;16.70;;;9.00;99.90;;;;;;5011549;28;20022;-62
2023/04/29 01:37:34;;;;;;;39.40;16.67;;;9.00;99.90;;;;;;5004265;28;20038;-62
2023/04/29 01:40:11;;;;;;;32.58;16.40;;;9.00;99.90;;;;;;5012239;28;20149;-62
2023/04/29 01:43:03;;;;;;;36.88;16.90;;;9.10;99.90;;;;;;5009980;28;20050;-62
2023/04/29 01:45:31;;;;;;;35.60;16.38;;;9.10;99.90;;;;;;5011074;28;20325;-62
2023/04/29 01:47:58;;;;;;;40.13;16.20;;;9.00;99.90;;;;;;5013558;28;20449;-62
2023/04/29 01:50:23;;;;;;;38.90;17.90;;;9.00;99.90;;;;;;5013568;28;20038;-62
2023/04/29 01:52:49;;;;;;;38.53;18.40;;;9.00;99.90;;;;;;5014952;28;20037;-61
2023/04/29 01:55:16;;;;;;;42.00;18.60;;;9.00;99.90;;;;;;5041125;28;20040;-62
2023/04/29 01:57:41;;;;;;;45.58;19.52;;;9.00;99.90;;;;;;5073649;28;20700;-62
2023/04/29 02:00:07;;;;;;;31.73;17.47;;;9.00;99.90;;;;;;5071228;28;20039;-62
2023/04/29 02:02:33;;;;;;;38.33;18.58;;;9.00;99.90;;;;;;5075664;28;20745;-62
2023/04/29 02:04:59;;;;;;;41.83;18.37;;;9.00;99.90;;;;;;5071280;28;20032;-81
2023/04/29 02:07:25;;;;;;;36.90;17.10;;;9.00;99.90;;;;;;5075345;28;20024;-62
2023/04/29 02:09:50;;;;;;;44.67;18.37;;;9.00;99.90;;;;;;5073389;28;20056;-62
2023/04/29 02:12:16;;;;;;;43.17;18.33;;;9.00;99.90;;;;;;5071769;28;20053;-68
2023/04/29 02:14:42;;;;;;;34.70;17.03;;;9.00;99.90;;;;;;5071718;28;20027;-72
2023/04/29 02:17:08;;;;;;;45.35;17.83;;;9.00;99.90;;;;;;5067202;28;20082;-63
2023/04/29 02:19:34;;;;;;;43.70;18.00;;;9.00;99.90;;;;;;5065762;28;20036;-67
2023/04/29 02:21:59;;;;;;;42.43;17.37;;;9.00;99.90;;;;;;5069618;28;20396;-61
2023/04/29 02:24:25;;;;;;;48.50;19.17;;;9.00;99.90;;;;;;5072423;28;20036;-62
2023/04/29 02:26:52;;;;;;;44.53;18.23;;;9.00;99.90;;;;;;5069061;28;20032;-66
2023/04/29 02:29:17;;;;;;;45.15;19.42;;;9.00;99.90;;;;;;5067218;28;20048;-61
2023/04/29 02:31:43;;;;;;;33.17;15.97;;;9.00;99.90;;;;;;5065450;28;20446;-64
2023/04/29 02:34:09;;;;;;;36.17;17.53;;;9.00;99.90;;;;;;5069517;28;20025;-70
2023/04/29 02:36:35;;;;;;;37.00;16.70;;;9.00;99.90;;;;;;5067205;28;20430;-63
2023/04/29 02:39:01;;;;;;;42.53;18.02;;;9.00;99.90;;;;;;5070157;28;20419;-63
2023/04/29 02:41:26;;;;;;;47.57;17.70;;;9.00;99.90;;;;;;5066112;28;20113;-63
2023/04/29 02:43:52;;;;;;;41.57;19.23;;;9.00;99.90;;;;;;5065892;28;20025;-62
2023/04/29 02:46:18;;;;;;;40.30;18.23;;;9.10;99.90;;;;;;5062839;28;20032;-65
2023/04/29 02:48:44;;;;;;;36.80;18.13;;;9.10;99.90;;;;;;5064321;28;20029;-63
2023/04/29 02:51:10;;;;;;;45.22;18.48;;;9.10;99.90;;;;;;5062534;28;20029;-63
2023/04/29 02:53:36;;;;;;;43.63;18.60;;;9.00;99.90;;;;;;5068029;28;20539;-72
2023/04/29 02:56:01;;;;;;;32.50;14.33;;;9.10;99.90;;;;;;5061111;28;20021;-62
2023/04/29 02:58:28;;;;;;;34.47;14.87;;;9.10;99.90;;;;;;5072375;28;20407;-63
2023/04/29 03:00:53;;;;;;;35.47;13.82;;;9.10;99.90;;;;;;5070792;28;20035;-62
2023/04/29 03:03:19;;;;;;;30.20;14.30;;;9.10;99.90;;;;;;5073363;28;20029;-66
2023/04/29 03:05:45;;;;;;;37.10;15.97;;;9.10;99.90;;;;;;5069673;28;20024;-63
2023/04/29 03:08:10;;;;;;;36.13;13.77;;;9.10;99.90;;;;;;5073399;28;20052;-62
2023/04/29 03:10:36;;;;;;;34.70;15.10;;;9.10;99.90;;;;;;5073575;28;20383;-63
2023/04/29 03:13:02;;;;;;;34.63;15.40;;;9.10;99.90;;;;;;5071197;28;20407;-61
2023/04/29 03:15:28;;;;;;;33.57;15.57;;;9.10;99.90;;;;;;5069211;28;20025;-63
2023/04/29 03:17:54;;;;;;;39.78;17.67;;;9.20;99.90;;;;;;5075068;28;20104;-63
2023/04/29 03:20:20;;;;;;;35.75;15.95;;;9.20;99.90;;;;;;5070705;28;20024;-66
2023/04/29 03:22:46;;;;;;;38.03;16.63;;;9.10;99.90;;;;;;5071745;28;20362;-73
2023/04/29 03:25:12;;;;;;;38.50;17.57;;;9.10;99.90;;;;;;5073273;28;20039;-63
2023/04/29 03:27:38;;;;;;;41.97;17.60;;;9.20;99.90;;;;;;5073614;28;20032;-69
2023/04/29 03:30:05;;;;;;;40.07;15.93;;;9.10;99.90;;;;;;5067662;28;20056;-64
2023/04/29 03:32:31;;;;;;;37.60;17.73;;;9.10;99.90;;;;;;5068877;28;20032;-61
2023/04/29 03:34:56;;;;;;;32.30;16.37;;;9.10;99.90;;;;;;5073514;28;20032;-63
2023/04/29 03:37:22;;;;;;;34.03;16.60;;;9.10;99.90;;;;;;5073235;28;20048;-63
2023/04/29 03:39:47;;;;;;;35.70;17.40;;;9.10;99.90;;;;;;5072230;28;20016;-62
2023/04/29 03:42:13;;;;;;;43.57;16.83;;;9.10;99.90;;;;;;5071183;28;20059;-67
2023/04/29 03:44:39;;;;;;;37.37;16.57;;;9.10;99.90;;;;;;5071798;28;20055;-80
2023/04/29 03:47:05;;;;;;;33.77;17.87;;;9.10;99.90;;;;;;5072076;28;20078;-74
2023/04/29 03:49:31;;;;;;;44.58;19.30;;;9.00;99.90;;;;;;5073296;28;20024;-64
2023/04/29 03:51:57;;;;;;;40.80;18.13;;;9.10;99.90;;;;;;5066360;28;20048;-71
2023/04/29 03:54:22;;;;;;;28.43;12.53;;;9.10;99.90;;;;;;5066461;28;20028;-62
2023/04/29 03:56:48;;;;;;;36.30;16.07;;;9.10;99.90;;;;;;5073233;28;20029;-76
2023/04/29 03:59:14;;;;;;;39.97;16.80;;;9.10;99.90;;;;;;5071725;28;20032;-68
2023/04/29 04:01:39;;;;;;;38.60;17.57;;;9.10;99.90;;;;;;5072851;28;20036;-77
2023/04/29 04:04:05;;;;;;;42.77;18.83;;;9.10;99.90;;;;;;5068796;28;20059;-74
2023/04/29 04:06:31;;;;;;;44.20;17.00;;;9.10;99.90;;;;;;5071927;28;20060;-74
2023/04/29 04:08:57;;;;;;;36.80;16.30;;;9.10;99.90;;;;;;5073930;28;20111;-64
2023/04/29 04:11:22;;;;;;;31.20;14.40;;;9.10;99.90;;;;;;5060648;28;20033;-62
2023/04/29 04:13:48;;;;;;;34.13;14.10;;;9.10;99.90;;;;;;5071495;28;20029;-68
2023/04/29 04:16:14;;;;;;;35.53;16.20;;;9.10;99.90;;;;;;5073402;28;20435;-62
2023/04/29 04:18:40;;;;;;;34.83;14.63;;;9.10;99.90;;;;;;5071483;28;20024;-65
2023/04/29 04:21:10;;;;;;;34.97;16.20;;;9.10;99.90;;;;;;5072361;28;20410;-68
2023/04/29 04:23:39;;;;;;;33.33;15.00;;;9.10;99.90;;;;;;5073848;28;20025;-63
2023/04/29 04:26:05;;;;;;;39.58;15.65;;;9.10;99.90;;;;;;5072133;28;20024;-63
2023/04/29 04:28:30;;;;;;;37.90;16.30;;;9.10;99.90;;;;;;5073035;28;20036;-62
2023/04/29 04:30:57;;;;;;;35.47;14.60;;;9.00;99.90;;;;;;5072504;28;20040;-61
2023/04/29 04:33:23;;;;;;;31.77;16.30;;;9.10;99.90;;;;;;5070222;28;20053;-62
2023/04/29 04:35:49;;;;;;;29.70;14.23;;;9.10;99.90;;;;;;5073186;28;20300;-62
2023/04/29 04:38:14;;;;;;;34.67;16.27;;;9.10;99.90;;;;;;5067396;28;20272;-62
2023/04/29 04:40:41;;;;;;;30.03;14.03;;;9.00;99.90;;;;;;5073330;28;20044;-62
2023/04/29 04:43:07;;;;;;;30.92;16.08;;;9.00;99.90;;;;;;5076489;28;20032;-61
2023/04/29 04:45:33;;;;;;;37.37;14.47;;;9.00;99.90;;;;;;5074019;28;20036;-62
2023/04/29 04:47:58;;;;;;;31.33;14.23;;;9.00;99.90;;;;;;5076178;28;20435;-61
2023/04/29 04:50:29;;;;;;;32.50;14.67;;;9.00;99.90;;;;;;5077256;28;20028;-78
2023/04/29 04:52:55;;;;;;;25.73;11.82;;;9.00;99.90;;;;;;5077210;28;20108;-62
2023/04/29 04:55:21;;;;;;;39.92;16.08;;;9.00;99.90;;;;;;5078106;28;20066;-62
2023/04/29 04:57:47;;;;;;;30.92;15.50;;;9.00;99.90;;;;;;5077734;28;20427;-62
2023/04/29 05:00:13;;;;;;;29.50;12.43;;;9.00;99.90;;;;;;5074800;28;20059;-62
2023/04/29 05:02:39;;;;;;;38.07;15.70;;;9.00;99.90;;;;;;5066254;28;20067;-62
2023/04/29 05:05:05;;;;;;;31.20;14.27;;;9.00;99.90;;;;;;5072736;28;20036;-62
2023/04/29 05:07:32;;;;;;;30.63;14.13;;;9.00;99.90;;;;;;5076664;28;20032;-62
2023/04/29 05:09:57;;;;;;;33.50;13.98;;;9.00;99.90;;;;;;5066796;28;20116;-62
2023/04/29 05:12:25;;;;;;;34.53;15.23;;;9.10;99.90;;;;;;5074015;28;20131;-62
2023/04/29 05:14:53;;;;;;;31.73;13.88;;;9.10;99.90;;;;;;5077483;28;20078;-76
2023/04/29 05:17:19;;;;;;;31.13;12.73;;;9.10;99.90;;;;;;5076166;28;20095;-62
2023/04/29 05:19:45;;;;;;;25.23;12.30;;;9.10;99.90;;;;;;5069809;28;20373;-62
2023/04/29 05:22:11;;;;;;;34.30;14.17;;;9.00;99.90;;;;;;5067922;28;20315;-62
2023/04/29 05:24:36;;;;;;;33.93;14.47;;;9.10;99.90;;;;;;5077035;28;20039;-62
2023/04/29 05:27:03;;;;;;;27.73;12.03;;;9.10;99.90;;;;;;5076458;28;20064;-62
2023/04/29 05:29:29;;;;;;;33.38;14.52;;;9.10;99.90;;;;;;5075419;28;20075;-62
2023/04/29 05:31:54;;;;;;;31.43;13.90;;;9.10;99.90;;;;;;5076259;28;20416;-77
2023/04/29 05:34:20;;;;;;;33.47;14.77;;;9.10;99.90;;;;;;5072631;28;20024;-62
2023/04/29 05:36:46;;;;;;;35.43;13.97;;;9.10;99.90;;;;;;5076442;28;20033;-62
2023/04/29 05:39:11;;;;;;;25.53;11.30;;;9.10;99.90;;;;;;5076453;28;20088;-62
2023/04/29 05:41:37;;;;;;;27.40;11.83;;;9.00;99.90;;;;;;5075826;28;20029;-62
2023/04/29 05:44:03;;;;;;;30.70;14.30;;;9.00;99.90;;;;;;5068885;28;20062;-62
2023/04/29 05:46:28;;;;;;;28.93;11.87;;;9.00;99.90;;;;;;5062821;28;20478;-62
2023/04/29 05:48:54;;;;;;;32.77;14.87;;;9.00;99.90;;;;;;5076990;28;20400;-62
2023/04/29 05:51:20;;;;;;;36.13;15.10;;;9.00;99.90;;;;;;5076052;28;20024;-62
2023/04/29 05:53:46;;;;;;;32.87;13.83;;;9.00;99.90;;;;;;5075124;28;20028;-62
2023/04/29 05:56:11;;;;;;;27.67;13.40;;;8.90;99.90;;;;;;5065137;28;20021;-61
2023/04/29 05:58:37;;;;;;;33.00;15.90;;;9.00;99.90;;;;;;5075662;28;20435;-62
2023/04/29 06:01:02;;;;;;;40.57;13.47;;;9.00;99.90;;;;;;5064983;28;20017;-62
2023/04/29 06:03:28;;;;;;;32.60;14.50;;;9.00;99.90;;;;;;5069137;28;20031;-62
2023/04/29 06:05:55;;;;;;;34.57;14.17;;;9.00;99.90;;;;;;5066915;28;20098;-62
2023/04/29 06:08:21;;;;;;;31.80;14.10;;;9.10;99.90;;;;;;5066076;28;20021;-67
2023/04/29 06:10:46;;;;;;;34.63;14.20;;;9.10;99.90;;;;;;5062247;28;20025;-62
2023/04/29 06:13:12;;;;;;;27.90;13.80;;;9.00;99.90;;;;;;5064692;28;20035;-64
2023/04/29 06:15:38;;;;;;;33.33;14.00;;;9.00;99.90;;;;;;5064930;28;20024;-62
2023/04/29 06:18:03;;;;;;;22.17;10.63;;;9.00;99.90;;;;;;5060992;28;20021;-66
2023/04/29 06:20:29;;;;;;;30.53;13.93;;;9.10;99.90;;;;;;5062490;28;20354;-77
2023/04/29 06:22:55;;;;;;;25.27;10.30;;;9.00;99.90;;;;;;5062164;28;20025;-63
2023/04/29 06:25:21;;;;;;;32.63;14.00;;;9.00;99.90;;;;;;5062100;28;20308;-64
2023/04/29 06:27:48;;;;;;;29.97;12.70;;;9.10;99.90;;;;;;5062094;28;20116;-63
2023/04/29 06:30:13;;;;;;;32.20;12.55;;;9.20;99.90;;;;;;5058478;28;20053;-61
2023/04/29 06:32:39;;;;;;;32.20;13.27;;;9.30;99.90;;;;;;5069602;28;20296;-65
2023/04/29 06:35:06;;;;;;;28.90;13.83;;;9.30;99.90;;;;;;5075450;28;20084;-68
2023/04/29 06:37:32;;;;;;;37.67;14.25;;;9.40;99.90;;;;;;5074586;28;20326;-64
2023/04/29 06:39:57;;;;;;;24.50;11.63;;;9.40;99.90;;;;;;5075447;28;20029;-62
2023/04/29 06:42:23;;;;;;;17.87;9.20;;;9.30;99.90;;;;;;5074230;28;20466;-63
2023/04/29 06:44:49;;;;;;;22.37;10.47;;;9.40;99.90;;;;;;5074964;28;20411;-62
2023/04/29 06:47:14;;;;;;;32.37;11.97;;;9.50;99.90;;;;;;5074600;28;20071;-64
2023/04/29 06:49:42;;;;;;;31.13;12.37;;;9.40;99.90;;;;;;5069311;28;20025;-72
2023/04/29 06:52:08;;;;;;;27.27;10.77;;;9.60;99.90;;;;;;5073150;28;20032;-69
2023/04/29 06:54:33;;;;;;;28.60;10.57;;;9.50;99.90;;;;;;5073383;28;20104;-65
2023/04/29 06:56:59;;;;;;;33.53;12.43;;;9.60;99.90;;;;;;5073366;28;20043;-73
2023/04/29 06:59:25;;;;;;;26.40;10.37;;;9.70;99.90;;;;;;5074893;28;20013;-64
2023/04/29 07:01:51;;;;;;;27.27;12.50;;;9.80;99.90;;;;;;5073060;28;20024;-76
2023/04/29 07:04:16;;;;;;;28.37;10.30;;;9.80;99.90;;;;;;5070875;28;20319;-62
2023/04/29 07:06:45;;;;;;;26.47;9.93;;;9.90;99.90;;;;;;5071627;28;20066;-72
2023/04/29 07:09:15;;;;;;;24.02;12.18;;;10.00;99.90;;;;;;5071850;28;20060;-73
2023/04/29 07:11:41;;;;;;;24.73;8.38;;;10.10;99.90;;;;;;5073914;28;20415;-74
2023/04/29 07:14:06;;;;;;;25.30;9.40;;;10.10;99.90;;;;;;5073706;28;20038;-69
2023/04/29 07:16:32;;;;;;;22.80;11.60;;;10.10;99.90;;;;;;5073227;28;20438;-67
2023/04/29 07:18:59;;;;;;;20.43;9.57;;;10.10;99.90;;;;;;5072657;28;20162;-62
2023/04/29 07:21:25;;;;;;;21.10;8.93;;;10.20;99.90;;;;;;5069421;28;20399;-75
2023/04/29 07:23:51;;;;;;;29.00;11.02;;;10.30;99.90;;;;;;5071944;28;20369;-63
2023/04/29 07:26:17;;;;;;;20.50;9.37;;;10.50;99.90;;;;;;5071988;28;20024;-70
2023/04/29 07:28:44;;;;;;;27.27;9.98;;;10.70;99.90;;;;;;5084175;28;20070;-65
2023/04/29 07:31:11;;;;;;;;;;;10.60;99.90;;;;;;5073944;28;20362;-70
2023/04/29 07:33:36;;;;;;;16.63;8.93;;;10.80;99.90;;;;;;5068065;28;19912;-63
2023/04/29 07:36:06;;;;;;;27.10;9.97;;;10.70;99.90;;;;;;5071707;28;20322;-72
2023/04/29 07:38:31;;;;;;;24.38;10.07;;;10.70;99.90;;;;;;5073935;28;20055;-74
2023/04/29 07:40:57;;;;;;;17.67;8.43;;;10.80;99.90;;;;;;5070598;28;20423;-66
2023/04/29 07:43:23;;;;;;;21.00;9.43;;;10.90;99.90;;;;;;5074184;28;20422;-63
2023/04/29 07:45:48;;;;;;;16.73;8.63;;;10.90;99.90;;;;;;5105223;28;20021;-63
2023/04/29 07:48:14;;;;;;;21.83;9.27;;;10.90;99.90;;;;;;5073547;28;20095;-70
2023/04/29 07:50:40;;;;;;;19.43;7.17;;;10.90;99.90;;;;;;5103662;28;20062;-74
2023/04/29 07:53:06;;;;;;;17.67;6.87;;;11.00;99.90;;;;;;5106188;28;20024;-69
2023/04/29 07:55:31;;;;;;;13.80;7.30;;;11.10;99.90;;;;;;5071209;28;20021;-62
2023/04/29 07:57:57;;;;;;;19.93;9.33;;;11.10;99.90;;;;;;5106430;28;20021;-73
2023/04/29 08:00:24;;;;;;;13.73;7.07;;;11.10;99.90;;;;;;5071171;28;20646;-64
2023/04/29 08:02:51;;;;;;;11.80;5.70;;;11.30;99.90;;;;;;5073571;28;20166;-65
2023/04/29 08:05:17;;;;;;;13.38;7.15;;;11.20;99.90;;;;;;5072438;28;20331;-67
2023/04/29 08:07:43;;;;;;;14.27;6.80;;;11.30;99.90;;;;;;5071053;28;20481;-76
2023/04/29 08:10:09;;;;;;;18.83;7.13;;;11.40;99.90;;;;;;5070676;28;20067;-71
2023/04/29 08:12:35;;;;;;;15.00;7.17;;;11.50;99.90;;;;;;5070241;28;20025;-70
2023/04/29 08:15:00;;;;;;;16.03;4.73;;;11.60;99.90;;;;;;5069559;28;20285;-76
2023/04/29 08:17:26;;;;;;;12.00;3.80;;;11.40;99.90;;;;;;5071091;28;20124;-67
2023/04/29 08:19:52;;;;;;;15.47;6.97;;;11.40;99.90;;;;;;5074073;28;20021;-71
2023/04/29 08:22:17;;;;;;;11.90;5.93;;;11.70;99.90;;;;;;5073622;28;20032;-71
2023/04/29 08:24:44;;;;;;;15.13;6.97;;;11.80;99.90;;;;;;5076356;28;20059;-72
2023/04/29 08:27:10;;;;;;;12.93;5.13;;;11.90;99.90;;;;;;5108813;28;20411;-65
2023/04/29 08:29:36;;;;;;;16.80;6.30;;;11.90;99.90;;;;;;5076208;28;20058;-78
2023/04/29 08:32:02;;;;;;;15.85;6.35;;;11.80;99.90;;;;;;5075750;28;20434;-69
2023/04/29 08:34:27;;;;;;;17.70;7.33;;;11.80;99.90;;;;;;5075983;28;20043;-72
2023/04/29 08:36:53;;;;;;;11.07;5.87;;;11.90;99.90;;;;;;5073922;28;20063;-68
2023/04/29 08:39:20;;;;;;;17.73;7.40;;;11.70;99.90;;;;;;5076465;28;20024;-70
2023/04/29 08:41:50;;;;;;;16.95;7.10;;;11.70;99.90;;;;;;5076433;28;20036;-76
2023/04/29 08:44:16;;;;;;;16.55;7.55;;;11.90;99.90;;;;;;5108362;28;20025;-73
2023/04/29 08:46:44;;;;;;;15.30;7.50;;;12.20;99.90;;;;;;5076131;28;20028;-74
2023/04/29 08:49:10;;;;;;;22.25;7.60;;;12.30;99.90;;;;;;5076320;28;20423;-72
2023/04/29 08:51:36;;;;;;;12.23;6.95;;;12.40;99.90;;;;;;5073650;28;20136;-65
2023/04/29 08:54:02;;;;;;;18.13;7.77;;;12.40;99.90;;;;;;5069997;28;20566;-69
2023/04/29 08:56:30;;;;;;;15.13;7.93;;;12.60;99.90;;;;;;5107309;28;20021;-64
2023/04/29 08:58:57;;;;;;;18.15;7.22;;;12.60;99.90;;;;;;5106349;28;20074;-77
2023/04/29 09:01:27;;;;;;;20.23;6.00;;;12.40;99.90;;;;;;5074629;28;20751;-70
2023/04/29 09:04:12;;;;;;;14.05;6.40;;;12.40;99.90;;;;;;5076255;28;20065;-75
2023/04/29 09:06:37;;;;;;;9.68;3.58;;;12.50;99.90;;;;;;5074159;28;20466;-77
2023/04/29 09:09:04;;;;;;;15.47;7.93;;;12.60;99.90;;;;;;5070328;28;20071;-76
2023/04/29 09:11:31;;;;;;;16.95;7.38;;;12.50;99.90;;;;;;5075597;28;20028;-63
2023/04/29 09:14:00;;;;;;;;;;;12.70;99.90;;;;;;5076038;28;20555;-71
2023/04/29 09:16:27;;;;;;;17.23;7.35;;;12.70;99.90;;;;;;5073239;28;20596;-70
2023/04/29 09:18:54;;;;;;;;;;;12.80;99.90;;;;;;5108747;28;20104;-64
2023/04/29 09:21:24;;;;;;;11.25;5.28;;;12.80;99.90;;;;;;5092307;28;19904;-66
2023/04/29 09:23:57;;;;;;;17.80;5.72;;;12.40;99.90;;;;;;5072665;28;20021;-75
2023/04/29 09:26:24;;;;;;;11.60;6.10;;;12.50;99.90;;;;;;5073542;28;20032;-73
2023/04/29 09:29:10;;;;;;;11.75;6.40;;;12.80;99.90;;;;;;5086597;28;20055;-62
2023/04/29 09:31:40;;;;;;;17.77;7.05;;;13.00;99.90;;;;;;5073124;28;20078;-66
2023/04/29 09:34:07;;;;;;;15.68;7.68;;;12.60;99.90;;;;;;5074715;28;20024;-74
2023/04/29 09:36:46;;;;;;;11.27;5.40;;;12.80;99.90;;;;;;5072580;28;20464;-69
2023/04/29 09:39:14;;;;;;;9.77;3.90;;;12.70;99.90;;;;;;5075919;28;20040;-73
2023/04/29 09:41:40;;;;;;;18.33;7.40;;;12.70;99.90;;;;;;5071933;28;20063;-64
2023/04/29 09:44:07;;;;;;;9.18;4.45;;;12.90;99.90;;;;;;5075535;28;20043;-67
2023/04/29 09:46:35;;;;;;;13.30;6.18;;;13.00;99.90;;;;;;5105625;28;20029;-69
2023/04/29 09:49:03;;;;;;;13.98;6.70;;;12.80;99.90;;;;;;5075955;28;20111;-61
2023/04/29 09:51:31;;;;;;;12.60;6.45;;;12.60;99.90;;;;;;5105136;28;20470;-74
2023/04/29 09:53:58;;;;;;;14.80;7.05;;;12.80;99.90;;;;;;5075791;28;20024;-70
2023/04/29 09:56:27;;;;;;;12.50;5.65;;;12.90;99.90;;;;;;5075339;28;20016;-62
2023/04/29 09:58:54;;;;;;;19.15;8.15;;;12.90;99.90;;;;;;5073905;28;20074;-64
2023/04/29 10:01:21;;;;;;;7.70;5.03;;;13.10;99.90;;;;;;5072876;28;20416;-67
2023/04/29 10:03:49;;;;;;;11.48;5.55;;;13.30;99.90;;;;;;5075277;28;20040;-73
2023/04/29 10:06:16;;;;;;;12.88;5.25;;;13.40;99.90;;;;;;5093555;28;20522;-71
2023/04/29 10:08:43;;;;;;;;;;;13.00;99.90;;;;;;5069378;28;20040;-69
2023/04/29 10:11:10;;;;;;;;;;;12.80;99.90;;;;;;5076941;28;20353;-62
2023/04/29 10:13:37;;;;;;;12.55;6.05;;;13.00;99.90;;;;;;5072485;28;20013;-63
2023/04/29 10:16:25;;;;;;;11.85;5.97;;;12.80;99.90;;;;;;5076235;28;20017;-63
2023/04/29 10:18:55;;;;;;;13.27;7.32;;;12.70;99.90;;;;;;5069641;28;20017;-69
2023/04/29 10:21:30;;;;;;;15.07;6.82;;;13.00;99.90;;;;;;5060681;28;20074;-63
2023/04/29 10:23:57;;;;;;;12.10;6.30;;;12.90;99.90;;;;;;5069580;28;20686;-67
2023/04/29 10:26:30;;;;;;;12.38;6.05;;;13.00;99.90;;;;;;5075666;28;20325;-74
2023/04/29 10:28:58;;;;;;;11.82;6.07;;;13.00;99.90;;;;;;5069564;28;20013;-73
2023/04/29 10:31:29;;;;;;;7.82;4.82;;;12.90;99.90;;;;;;5075068;28;20013;-62
2023/04/29 10:33:56;;;;;;;12.65;6.55;;;12.90;99.90;;;;;;5075979;28;20028;-63
2023/04/29 10:36:24;;;;;;;9.55;4.97;;;13.10;99.90;;;;;;5074774;28;20371;-62
2023/04/29 10:38:54;;;;;;;10.93;5.20;;;13.10;99.90;;;;;;5087256;28;20024;-63
2023/04/29 10:41:24;;;;;;;7.97;3.72;;;13.10;99.90;;;;;;5074749;28;20017;-63
2023/04/29 10:43:52;;;;;;;14.00;6.88;;;13.10;99.90;;;;;;5075097;28;20016;-62
2023/04/29 10:46:25;;;;;;;11.95;5.70;;;13.20;99.90;;;;;;5072426;28;20098;-62
2023/04/29 10:49:01;;;;;;;11.23;4.32;;;13.20;99.90;;;;;;5073298;28;20099;-62
2023/04/29 10:51:38;;;;;;;9.82;4.50;;;13.50;99.90;;;;;;5072347;28;20044;-62
2023/04/29 10:54:10;;;;;;;9.00;5.82;;;13.30;99.90;;;;;;5074909;28;20082;-76
2023/04/29 10:56:42;;;;;;;11.35;6.22;;;13.30;99.90;;;;;;5071477;28;20021;-62
2023/04/29 10:59:29;;;;;;;10.52;6.22;;;13.30;99.90;;;;;;5073471;28;20056;-64
2023/04/29 11:01:55;;;;;;;11.77;5.65;;;13.30;99.90;;;;;;5067895;28;20145;-61
2023/04/29 11:04:22;;;;;;;11.30;5.70;;;13.20;99.90;;;;;;5088368;28;20111;-75
2023/04/29 11:06:51;;;;;;;14.52;5.93;;;13.30;99.90;;;;;;5074309;28;20028;-62
2023/04/29 11:09:23;;;;;;;17.10;6.13;;;13.30;99.90;;;;;;5070333;28;20032;-63
2023/04/29 11:11:56;;;;;;;13.20;6.43;;;13.50;99.90;;;;;;5074417;28;20319;-62
2023/04/29 11:14:35;;;;;;;12.43;5.78;;;13.20;99.90;;;;;;5069863;28;20350;-74
2023/04/29 11:17:03;;;;;;;12.15;5.78;;;13.30;99.90;;;;;;5070678;28;20512;-63
2023/04/29 11:19:40;;;;;;;12.95;6.07;;;13.30;99.90;;;;;;5072951;28;20033;-62
2023/04/29 11:22:16;;;;;;;9.20;5.25;;;13.40;99.90;;;;;;5075007;28;20054;-62
2023/04/29 11:25:01;;;;;;;11.43;5.97;;;13.40;99.90;;;;;;5059234;28;20118;-63
2023/04/29 11:27:36;;;;;;;9.73;5.35;;;13.30;99.90;;;;;;5088576;28;20043;-62
2023/04/29 11:30:04;;;;;;;17.23;5.35;;;13.30;99.90;;;;;;5074797;28;20066;-62
2023/04/29 11:32:33;;;;;;;12.68;6.32;;;13.40;99.90;;;;;;5073938;28;20025;-63
2023/04/29 11:35:13;;;;;;;10.50;6.00;;;13.60;99.90;;;;;;5065362;28;20418;-63
2023/04/29 11:37:40;;;;;;;10.88;5.65;;;13.40;99.90;;;;;;5073213;28;20111;-63
2023/04/29 11:40:06;;;;;;;;;;;13.50;99.90;;;;;;5075109;28;20012;-62
2023/04/29 11:42:40;;;;;;;10.68;5.53;;;13.30;99.90;;;;;;5070776;28;19904;-63
2023/04/29 11:45:06;;;;;;;10.85;5.85;;;13.40;99.90;;;;;;5072101;28;20103;-63
2023/04/29 11:47:32;;;;;;;13.10;5.63;;;13.40;99.90;;;;;;5069639;28;20051;-64
2023/04/29 11:50:05;;;;;;;11.53;4.73;;;13.50;99.90;;;;;;5068501;28;20417;-62
2023/04/29 11:52:31;;;;;;;10.75;5.50;;;13.30;99.90;;;;;;5070046;28;20028;-62
2023/04/29 11:54:59;;;;;;;11.40;4.53;;;13.30;99.90;;;;;;5071443;28;20040;-64
2023/04/29 11:57:25;;;;;;;17.02;5.07;;;13.30;99.90;;;;;;5071247;28;20447;-63
2023/04/29 11:59:50;;;;;;;9.52;5.45;;;13.50;99.90;;;;;;5070668;28;20617;-63
2023/04/29 12:02:16;;;;;;;11.83;5.63;;;13.70;99.90;;;;;;5073614;28;20037;-74
2023/04/29 12:04:48;;;;;;;8.07;5.07;;;13.90;99.90;;;;;;5073372;28;20123;-64
2023/04/29 12:07:17;;;;;;;13.02;5.80;;;14.00;99.90;;;;;;5070611;28;20036;-64
2023/04/29 12:09:46;;;;;;;11.10;5.53;;;14.00;99.90;;;;;;5072679;28;20027;-64
2023/04/29 12:12:13;;;;;;;9.77;5.22;;;13.80;99.90;;;;;;5070192;28;20433;-74
2023/04/29 12:14:40;;;;;;;13.65;5.85;;;14.10;99.90;;;;;;5064729;28;20490;-64
2023/04/29 12:17:06;;;;;;;9.95;5.10;;;14.10;99.90;;;;;;5067124;28;20414;-65
2023/04/29 12:19:32;;;;;;;13.50;5.68;;;14.30;99.90;;;;;;5066394;28;20309;-74
2023/04/29 12:21:59;;;;;;;10.35;5.03;;;14.30;99.90;;;;;;5065608;28;20031;-73
2023/04/29 12:24:25;;;;;;;8.90;5.25;;;14.60;99.90;;;;;;5067170;28;20312;-64
2023/04/29 12:26:52;;;;;;;8.27;4.47;;;14.50;99.90;;;;;;5104927;28;20032;-73
2023/04/29 12:29:21;;;;;;;7.63;3.92;;;14.60;99.90;;;;;;5066675;28;20513;-64
2023/04/29 12:31:47;;;;;;;8.50;4.43;;;14.40;99.90;;;;;;5073169;28;20422;-70
2023/04/29 12:34:13;;;;;;;8.73;4.83;;;14.30;99.90;;;;;;5082204;28;20059;-63
2023/04/29 12:36:41;;;;;;;12.53;4.40;;;14.00;99.90;;;;;;5073443;28;20020;-63
2023/04/29 12:39:09;;;;;;;5.47;2.63;;;14.20;99.90;;;;;;5071980;28;20103;-67
2023/04/29 12:41:44;;;;;;;9.40;4.63;;;14.00;99.90;;;;;;5061200;28;20368;-74